createdAt,value
2023-04-25T00:00:53.559Z,98825.14
2023-04-25T00:03:21.845Z,98822.61
2023-04-25T00:05:49.365Z,98821.55
2023-04-25T00:08:16.277Z,98819.40
2023-04-25T00:10:42.956Z,98818.65
2023-04-25T00:13:11.764Z,98816.91
2023-04-25T00:15:39.162Z,98816.86
2023-04-25T00:18:06.882Z,98814.65
2023-04-25T00:20:33.806Z,98818.52
2023-04-25T00:23:00.390Z,98812.79
2023-04-25T00:25:27.163Z,98811.68
2023-04-25T00:27:54.106Z,98809.98
2023-04-25T00:30:20.690Z,98804.23
2023-04-25T00:32:47.475Z,98803.59
2023-04-25T00:35:14.209Z,98799.54
2023-04-25T00:37:41.010Z,98796.73
2023-04-25T00:40:08.304Z,98792.60
2023-04-25T00:42:36.478Z,98794.80
2023-04-25T00:45:05.941Z,98790.55
2023-04-25T00:47:33.465Z,98792.84
2023-04-25T00:50:00.223Z,98789.14
2023-04-25T00:52:26.902Z,98789.10
2023-04-25T00:54:55.226Z,98789.14
2023-04-25T00:57:21.897Z,98792.58
2023-04-25T00:59:48.639Z,98792.77
2023-04-25T01:02:15.450Z,98793.29
2023-04-25T01:04:42.174Z,98792.11
2023-04-25T01:07:10.390Z,98792.07
2023-04-25T01:09:37.110Z,98789.05
2023-04-25T01:12:03.945Z,98790.85
2023-04-25T01:14:30.695Z,98789.21
2023-04-25T01:16:57.781Z,98791.19
2023-04-25T01:19:24.534Z,98790.36
2023-04-25T01:21:51.438Z,98792.01
2023-04-25T01:24:18.340Z,98789.41
2023-04-25T01:26:49.776Z,98783.78
2023-04-25T01:29:19.627Z,98783.04
2023-04-25T01:31:46.926Z,98783.95
2023-04-25T01:34:14.019Z,98781.67
2023-04-25T01:36:41.046Z,98781.21
2023-04-25T01:39:08.151Z,98777.66
2023-04-25T01:41:35.017Z,98775.52
2023-04-25T01:44:01.716Z,98774.23
2023-04-25T01:46:29.819Z,98769.73
2023-04-25T01:48:56.488Z,98770.95
2023-04-25T01:51:23.195Z,98768.41
2023-04-25T01:53:50.346Z,98772.59
2023-04-25T01:56:19.040Z,98772.42
2023-04-25T01:58:45.843Z,98773.82
2023-04-25T02:01:21.287Z,98773.98
2023-04-25T02:03:55.725Z,98771.56
2023-04-25T02:06:35.701Z,98773.80
2023-04-25T02:09:02.428Z,98773.02
2023-04-25T02:11:29.213Z,98774.04
2023-04-25T02:14:25.250Z,98772.73
2023-04-25T02:17:02.867Z,98771.49
2023-04-25T02:19:31.910Z,98769.52
2023-04-25T02:21:58.571Z,98775.43
2023-04-25T02:24:25.378Z,98772.71
2023-04-25T02:26:53.499Z,98769.41
2023-04-25T02:29:20.216Z,98767.52
2023-04-25T02:31:46.878Z,98762.89
2023-04-25T02:34:13.548Z,98762.82
2023-04-25T02:36:40.475Z,98760.16
2023-04-25T02:39:07.313Z,98763.90
2023-04-25T02:41:35.453Z,98762.92
2023-04-25T02:44:02.093Z,98759.00
2023-04-25T02:46:39.056Z,98760.34
2023-04-25T02:49:06.950Z,98758.02
2023-04-25T02:51:34.935Z,98757.51
2023-04-25T02:54:01.707Z,98759.87
2023-04-25T02:56:29.040Z,98758.05
2023-04-25T02:58:55.695Z,98756.14
2023-04-25T03:01:22.516Z,98757.02
2023-04-25T03:03:49.758Z,98762.31
2023-04-25T03:06:16.678Z,98763.42
2023-04-25T03:08:43.836Z,98767.21
2023-04-25T03:11:11.142Z,98768.86
2023-04-25T03:13:37.914Z,98769.71
2023-04-25T03:16:05.885Z,98771.14
2023-04-25T03:18:33.043Z,98766.52
2023-04-25T03:20:59.980Z,98762.59
2023-04-25T03:23:26.784Z,98764.91
2023-04-25T03:25:53.678Z,98761.14
2023-04-25T03:28:20.651Z,98756.42
2023-04-25T03:30:47.307Z,98760.27
2023-04-25T03:33:14.072Z,98758.05
2023-04-25T03:35:40.897Z,98758.15
2023-04-25T03:38:07.531Z,98760.39
2023-04-25T03:40:36.691Z,98760.27
2023-04-25T03:43:16.334Z,98755.13
2023-04-25T03:45:48.798Z,98757.58
2023-04-25T03:48:16.580Z,98757.69
2023-04-25T03:50:43.399Z,98754.24
2023-04-25T03:53:10.166Z,98754.42
2023-04-25T03:55:56.807Z,98753.46
2023-04-25T03:58:24.856Z,98756.59
2023-04-25T04:00:51.541Z,98757.84
2023-04-25T04:03:19.276Z,98760.47
2023-04-25T04:05:46.912Z,98754.96
2023-04-25T04:08:13.891Z,98752.71
2023-04-25T04:10:40.813Z,98753.55
2023-04-25T04:13:08.077Z,98755.23
2023-04-25T04:15:34.984Z,98755.48
2023-04-25T04:18:03.148Z,98754.35
2023-04-25T04:20:31.084Z,98757.30
2023-04-25T04:22:58.147Z,98755.16
2023-04-25T04:25:25.340Z,98757.27
2023-04-25T04:28:08.624Z,98750.98
2023-04-25T04:30:47.377Z,98749.73
2023-04-25T04:33:15.656Z,98746.36
2023-04-25T04:35:43.950Z,98743.77
2023-04-25T04:38:12.153Z,98744.35
2023-04-25T04:40:38.930Z,98743.59
2023-04-25T04:43:13.659Z,98748.33
2023-04-25T04:45:52.820Z,98748.46
2023-04-25T04:48:43.012Z,98742.52
2023-04-25T04:51:44.896Z,98740.89
2023-04-25T04:54:30.650Z,98738.15
2023-04-25T04:57:17.162Z,98740.37
2023-04-25T05:00:16.692Z,98736.29
2023-04-25T05:02:56.725Z,98737.73
2023-04-25T05:05:40.519Z,98737.53
2023-04-25T05:08:46.389Z,98738.89
2023-04-25T05:11:19.828Z,98731.55
2023-04-25T05:13:57.476Z,98730.19
2023-04-25T05:16:43.139Z,98728.79
2023-04-25T05:19:31.086Z,98726.56
2023-04-25T05:22:16.668Z,98728.30
2023-04-25T05:25:10.111Z,98723.17
2023-04-25T05:27:57.202Z,98720.55
2023-04-25T05:30:45.662Z,98725.99
2023-04-25T05:33:19.141Z,98726.23
2023-04-25T05:35:46.482Z,98727.71
2023-04-25T05:38:14.809Z,98721.60
2023-04-25T05:41:01.963Z,98723.75
2023-04-25T05:43:58.537Z,98724.53
2023-04-25T05:46:35.064Z,98722.55
2023-04-25T05:49:21.154Z,98721.45
2023-04-25T05:52:13.640Z,98722.46
2023-04-25T05:54:41.469Z,98721.35
2023-04-25T05:57:08.343Z,98715.06
2023-04-25T05:59:35.389Z,98714.18
2023-04-25T06:02:02.399Z,98705.92
2023-04-25T06:04:30.338Z,98708.05
2023-04-25T06:06:57.343Z,98706.91
2023-04-25T06:09:24.097Z,98707.70
2023-04-25T06:11:53.728Z,98707.91
2023-04-25T06:14:20.493Z,98708.48
2023-04-25T06:16:49.000Z,98703.34
2023-04-25T06:19:16.495Z,98701.77
2023-04-25T06:21:44.080Z,98696.61
2023-04-25T06:24:11.452Z,98698.92
2023-04-25T06:26:38.099Z,98700.02
2023-04-25T06:29:04.973Z,98696.58
2023-04-25T06:31:35.194Z,98695.30
2023-04-25T06:34:02.995Z,98689.11
2023-04-25T06:36:31.464Z,98690.12
2023-04-25T06:39:03.190Z,98684.41
2023-04-25T06:41:30.199Z,98688.29
2023-04-25T06:43:59.927Z,98680.45
2023-04-25T06:46:40.365Z,98680.56
2023-04-25T06:49:07.160Z,98684.80
2023-04-25T06:51:34.176Z,98685.04
2023-04-25T06:54:01.442Z,98684.11
2023-04-25T06:56:38.016Z,98679.67
2023-04-25T06:59:12.030Z,98680.32
2023-04-25T07:01:41.106Z,98680.98
2023-04-25T07:04:19.984Z,98684.29
2023-04-25T07:06:50.858Z,98680.30
2023-04-25T07:09:20.113Z,98681.11
2023-04-25T07:11:47.698Z,98680.83
2023-04-25T07:14:14.368Z,98680.98
2023-04-25T07:16:41.422Z,98680.08
2023-04-25T07:19:08.780Z,98677.49
2023-04-25T07:21:36.811Z,98682.42
2023-04-25T07:24:04.063Z,98684.30
2023-04-25T07:26:34.273Z,98687.91
2023-04-25T07:29:37.776Z,98688.27
2023-04-25T07:32:05.093Z,98681.26
2023-04-25T07:34:32.623Z,98676.59
2023-04-25T07:36:59.916Z,98680.39
2023-04-25T07:39:27.459Z,98676.68
2023-04-25T07:41:55.643Z,98674.42
2023-04-25T07:44:26.382Z,98673.19
2023-04-25T07:46:53.122Z,98674.73
2023-04-25T07:49:20.531Z,98668.95
2023-04-25T07:51:47.492Z,98664.78
2023-04-25T07:54:16.459Z,98663.29
2023-04-25T07:56:52.879Z,98663.33
2023-04-25T07:59:22.095Z,98666.87
2023-04-25T08:02:04.502Z,98662.96
2023-04-25T08:04:32.696Z,98659.94
2023-04-25T08:07:05.209Z,98661.59
2023-04-25T08:09:39.250Z,98654.58
2023-04-25T08:12:08.514Z,98650.62
2023-04-25T08:14:37.495Z,98651.77
2023-04-25T08:17:05.627Z,98654.49
2023-04-25T08:19:33.981Z,98652.85
2023-04-25T08:22:01.749Z,98649.58
2023-04-25T08:24:37.868Z,98648.05
2023-04-25T08:27:12.777Z,98645.66
2023-04-25T08:29:40.695Z,98643.66
2023-04-25T08:32:07.789Z,98646.37
2023-04-25T08:34:35.041Z,98645.83
2023-04-25T08:37:05.023Z,98643.16
2023-04-25T08:39:40.052Z,98640.64
2023-04-25T08:42:26.644Z,98644.06
2023-04-25T08:44:54.405Z,98642.86
2023-04-25T08:47:22.896Z,98638.00
2023-04-25T08:49:55.515Z,98637.71
2023-04-25T08:52:23.478Z,98638.54
2023-04-25T08:54:50.209Z,98636.02
2023-04-25T08:57:17.419Z,98637.04
2023-04-25T08:59:46.098Z,98635.85
2023-04-25T09:02:16.270Z,98627.67
2023-04-25T09:04:44.027Z,98629.88
2023-04-25T09:07:10.983Z,98627.58
2023-04-25T09:09:38.545Z,98628.95
2023-04-25T09:12:05.876Z,98624.77
2023-04-25T09:14:33.015Z,98623.93
2023-04-25T09:17:09.848Z,98616.27
2023-04-25T09:19:41.742Z,98610.70
2023-04-25T09:22:16.910Z,98614.94
2023-04-25T09:24:44.731Z,98616.70
2023-04-25T09:27:12.349Z,98617.42
2023-04-25T09:29:41.090Z,98611.08
2023-04-25T09:32:21.048Z,98603.57
2023-04-25T09:34:52.452Z,98611.16
2023-04-25T09:37:28.111Z,98608.12
2023-04-25T09:40:06.571Z,98608.55
2023-04-25T09:42:35.903Z,98601.77
2023-04-25T09:45:03.232Z,98596.06
2023-04-25T09:47:32.606Z,98602.77
2023-04-25T09:50:00.614Z,98599.69
2023-04-25T09:52:27.300Z,98598.33
2023-04-25T09:55:12.227Z,98594.52
2023-04-25T09:57:40.323Z,98588.98
2023-04-25T10:00:12.722Z,98589.58
2023-04-25T10:02:43.302Z,98582.39
2023-04-25T10:05:11.679Z,98576.05
2023-04-25T10:07:40.548Z,98570.39
2023-04-25T10:10:12.730Z,98568.17
2023-04-25T10:12:40.986Z,98564.45
2023-04-25T10:15:09.366Z,98573.45
2023-04-25T10:17:36.279Z,98573.35
2023-04-25T10:20:08.664Z,98561.86
2023-04-25T10:22:37.946Z,98553.66
2023-04-25T10:25:05.023Z,98552.88
2023-04-25T10:27:32.367Z,98559.95
2023-04-25T10:30:06.863Z,98565.52
2023-04-25T10:32:34.098Z,98559.71
2023-04-25T10:35:17.696Z,98549.77
2023-04-25T10:38:09.550Z,98548.33
2023-04-25T10:40:36.563Z,98559.25
2023-04-25T10:43:31.659Z,98550.63
2023-04-25T10:46:01.717Z,98547.13
2023-04-25T10:48:29.487Z,98546.11
2023-04-25T10:51:10.465Z,98545.52
2023-04-25T10:53:37.672Z,98545.45
2023-04-25T10:56:23.297Z,98543.03
2023-04-25T10:58:51.995Z,98543.68
2023-04-25T11:01:21.256Z,98542.30
2023-04-25T11:03:50.972Z,98534.87
2023-04-25T11:06:21.430Z,98536.31
2023-04-25T11:08:50.527Z,98536.09
2023-04-25T11:11:18.280Z,98532.25
2023-04-25T11:13:48.516Z,98527.11
2023-04-25T11:18:44.822Z,98525.27
2023-04-25T11:21:12.002Z,98524.08
2023-04-25T11:23:39.078Z,98523.24
2023-04-25T11:26:05.846Z,98519.55
2023-04-25T11:28:32.813Z,98519.46
2023-04-25T11:31:00.176Z,98512.96
2023-04-25T11:33:27.895Z,98511.48
2023-04-25T11:35:56.113Z,98502.08
2023-04-25T11:38:25.374Z,98502.19
2023-04-25T11:40:53.562Z,98505.15
2023-04-25T11:43:21.852Z,98500.64
2023-04-25T11:45:49.670Z,98501.15
2023-04-25T11:48:18.112Z,98501.34
2023-04-25T11:50:45.548Z,98499.38
2023-04-25T11:53:12.498Z,98500.05
2023-04-25T11:55:39.756Z,98495.14
2023-04-25T11:58:06.906Z,98488.75
2023-04-25T12:00:40.754Z,98481.89
2023-04-25T12:03:18.749Z,98480.23
2023-04-25T12:05:46.363Z,98470.85
2023-04-25T12:08:16.091Z,98468.57
2023-04-25T12:10:44.167Z,98469.61
2023-04-25T12:13:25.041Z,98468.38
2023-04-25T12:15:52.418Z,98468.96
2023-04-25T12:18:21.273Z,98482.58
2023-04-25T12:20:52.879Z,98474.48
2023-04-25T12:23:27.579Z,98472.25
2023-04-25T12:25:55.604Z,98470.17
2023-04-25T12:28:24.618Z,98474.41
2023-04-25T12:30:55.387Z,98466.38
2023-04-25T12:33:22.898Z,98463.05
2023-04-25T12:35:50.010Z,98456.15
2023-04-25T12:38:22.023Z,98448.81
2023-04-25T12:40:49.014Z,98451.21
2023-04-25T12:43:15.737Z,98452.41
2023-04-25T12:45:42.540Z,98448.72
2023-04-25T12:48:09.260Z,98448.81
2023-04-25T12:50:36.060Z,98442.77
2023-04-25T12:53:02.709Z,98440.02
2023-04-25T12:55:30.304Z,98435.51
2023-04-25T12:57:56.913Z,98425.65
2023-04-25T13:00:24.135Z,98420.59
2023-04-25T13:02:51.456Z,98421.05
2023-04-25T13:05:18.385Z,98421.20
2023-04-25T13:07:45.663Z,98416.73
2023-04-25T13:10:12.328Z,98420.13
2023-04-25T13:12:39.086Z,98415.80
2023-04-25T13:15:07.500Z,98414.06
2023-04-25T13:17:35.444Z,98411.34
2023-04-25T13:20:02.119Z,98408.36
2023-04-25T13:22:29.341Z,98407.66
2023-04-25T13:24:55.949Z,98403.55
2023-04-25T13:27:22.815Z,98399.92
2023-04-25T13:29:49.447Z,98395.40
2023-04-25T13:32:16.185Z,98387.94
2023-04-25T13:34:43.126Z,98389.75
2023-04-25T13:37:09.812Z,98388.55
2023-04-25T13:39:36.503Z,98384.49
2023-04-25T13:42:03.602Z,98386.98
2023-04-25T13:44:30.587Z,98382.44
2023-04-25T13:46:57.319Z,98378.98
2023-04-25T13:49:24.222Z,98376.38
2023-04-25T13:51:50.819Z,98374.99
2023-04-25T13:54:17.494Z,98369.62
2023-04-25T13:56:44.845Z,98368.63
2023-04-25T13:59:11.809Z,98371.61
2023-04-25T14:01:38.573Z,98364.98
2023-04-25T14:04:05.394Z,98364.80
2023-04-25T14:06:33.449Z,98363.61
2023-04-25T14:09:01.644Z,98364.41
2023-04-25T14:11:28.620Z,98363.03
2023-04-25T14:13:55.374Z,98361.47
2023-04-25T14:16:23.379Z,98355.73
2023-04-25T14:18:50.017Z,98354.67
2023-04-25T14:21:16.633Z,98351.66
2023-04-25T14:23:43.427Z,98360.79
2023-04-25T14:26:12.864Z,98354.19
2023-04-25T14:28:39.576Z,98356.02
2023-04-25T14:31:06.354Z,98354.20
2023-04-25T14:33:33.315Z,98349.75
2023-04-25T14:35:59.908Z,98350.80
2023-04-25T14:38:27.319Z,98351.02
2023-04-25T14:40:54.493Z,98345.30
2023-04-25T14:43:21.165Z,98343.18
2023-04-25T14:45:47.823Z,98344.25
2023-04-25T14:48:15.680Z,98345.66
2023-04-25T14:50:42.468Z,98343.00
2023-04-25T14:53:09.215Z,98339.58
2023-04-25T14:55:35.922Z,98337.98
2023-04-25T14:58:04.132Z,98336.08
2023-04-25T15:00:32.251Z,98332.38
2023-04-25T15:03:02.018Z,98329.57
2023-04-25T15:05:29.489Z,98322.88
2023-04-25T15:07:56.119Z,98326.10
2023-04-25T15:10:22.979Z,98318.78
2023-04-25T15:12:49.646Z,98319.60
2023-04-25T15:15:25.390Z,98316.41
2023-04-25T15:17:58.713Z,98310.42
2023-04-25T15:20:27.339Z,98312.14
2023-04-25T15:22:54.446Z,98309.90
2023-04-25T15:25:21.317Z,98304.17
2023-04-25T15:27:48.959Z,98307.73
2023-04-25T15:30:16.814Z,98307.96
2023-04-25T15:32:44.751Z,98307.13
2023-04-25T15:35:11.614Z,98310.17
2023-04-25T15:37:38.534Z,98307.23
2023-04-25T15:40:11.410Z,98305.27
2023-04-25T15:42:39.506Z,98299.64
2023-04-25T15:45:07.080Z,98298.59
2023-04-25T15:47:34.241Z,98299.95
2023-04-25T15:50:01.825Z,98296.33
2023-04-25T15:52:28.877Z,98298.50
2023-04-25T15:54:55.441Z,98295.73
2023-04-25T15:57:22.465Z,98293.35
2023-04-25T15:59:49.660Z,98294.77
2023-04-25T16:02:17.050Z,98288.50
2023-04-25T16:04:44.952Z,98286.57
2023-04-25T16:07:12.949Z,98286.07
2023-04-25T16:09:39.648Z,98287.17
2023-04-25T16:12:08.656Z,98287.23
2023-04-25T16:14:35.578Z,98288.08
2023-04-25T16:17:02.291Z,98287.50
2023-04-25T16:19:29.499Z,98287.29
2023-04-25T16:21:56.274Z,98288.56
2023-04-25T16:24:22.920Z,98286.90
2023-04-25T16:26:49.770Z,98288.87
2023-04-25T16:29:17.162Z,98290.51
2023-04-25T16:31:43.995Z,98288.07
2023-04-25T16:34:11.136Z,98289.42
2023-04-25T16:36:38.174Z,98287.92
2023-04-25T16:39:07.809Z,98288.54
2023-04-25T16:41:35.071Z,98288.95
2023-04-25T16:44:01.722Z,98287.51
2023-04-25T16:46:28.555Z,98289.77
2023-04-25T16:48:55.715Z,98290.72
2023-04-25T16:51:22.370Z,98291.19
2023-04-25T16:53:49.016Z,98290.50
2023-04-25T16:56:15.640Z,98293.14
2023-04-25T16:58:42.786Z,98293.71
2023-04-25T17:01:10.833Z,98293.06
2023-04-25T17:03:37.806Z,98289.79
2023-04-25T17:06:04.993Z,98290.14
2023-04-25T17:08:32.141Z,98289.23
2023-04-25T17:10:59.453Z,98289.45
2023-04-25T17:13:31.474Z,98289.82
2023-04-25T17:15:59.268Z,98289.86
2023-04-25T17:18:27.676Z,98291.70
2023-04-25T17:20:54.858Z,98292.45
2023-04-25T17:23:22.065Z,98295.23
2023-04-25T17:25:48.964Z,98297.89
2023-04-25T17:28:15.957Z,98302.48
2023-04-25T17:30:43.970Z,98304.85
2023-04-25T17:33:10.938Z,98309.83
2023-04-25T17:35:37.649Z,98309.14
2023-04-25T17:38:04.372Z,98310.92
2023-04-25T17:40:31.422Z,98310.38
2023-04-25T17:42:58.310Z,98314.25
2023-04-25T17:45:25.027Z,98313.96
2023-04-25T17:47:51.703Z,98315.95
2023-04-25T17:50:18.927Z,98318.14
2023-04-25T17:52:47.624Z,98318.52
2023-04-25T17:55:14.313Z,98319.73
2023-04-25T17:57:41.145Z,98319.51
2023-04-25T18:00:08.675Z,98317.62
2023-04-25T18:02:44.722Z,98320.20
2023-04-25T18:05:11.585Z,98322.34
2023-04-25T18:07:38.277Z,98319.38
2023-04-25T18:10:05.791Z,98319.06
2023-04-25T18:12:33.400Z,98322.42
2023-04-25T18:15:01.168Z,98326.27
2023-04-25T18:17:28.045Z,98330.02
2023-04-25T18:19:54.870Z,98329.66
2023-04-25T18:22:21.790Z,98330.09
2023-04-25T18:24:49.952Z,98331.50
2023-04-25T18:27:16.839Z,98328.46
2023-04-25T18:29:44.807Z,98330.73
2023-04-25T18:32:11.926Z,98331.09
2023-04-25T18:34:43.079Z,98332.09
2023-04-25T18:37:12.501Z,98330.52
2023-04-25T18:39:40.420Z,98330.71
2023-04-25T18:42:07.959Z,98333.38
2023-04-25T18:44:39.315Z,98331.86
2023-04-25T18:47:07.268Z,98331.97
2023-04-25T18:49:34.382Z,98335.45
2023-04-25T18:52:02.971Z,98337.55
2023-04-25T18:54:29.817Z,98338.83
2023-04-25T18:56:57.602Z,98338.09
2023-04-25T18:59:24.238Z,98340.79
2023-04-25T19:01:53.013Z,98340.80
2023-04-25T19:04:19.819Z,98337.40
2023-04-25T19:06:49.242Z,98337.59
2023-04-25T19:09:16.148Z,98335.09
2023-04-25T19:11:43.397Z,98336.80
2023-04-25T19:14:10.874Z,98333.84
2023-04-25T19:16:41.053Z,98331.47
2023-04-25T19:19:08.671Z,98331.85
2023-04-25T19:21:35.499Z,98337.35
2023-04-25T19:24:06.365Z,98339.35
2023-04-25T19:26:33.287Z,98334.65
2023-04-25T19:29:03.899Z,98337.80
2023-04-25T19:31:30.717Z,98338.96
2023-04-25T19:33:58.293Z,98335.80
2023-04-25T19:36:25.011Z,98335.84
2023-04-25T19:38:52.623Z,98336.48
2023-04-25T19:41:19.220Z,98333.22
2023-04-25T19:43:46.191Z,98333.27
2023-04-25T19:46:12.850Z,98330.67
2023-04-25T19:48:39.839Z,98324.77
2023-04-25T19:51:07.117Z,98328.05
2023-04-25T19:53:34.710Z,98327.89
2023-04-25T19:56:02.250Z,98328.11
2023-04-25T19:58:29.177Z,98330.48
2023-04-25T20:00:57.081Z,98332.88
2023-04-25T20:03:25.855Z,98327.23
2023-04-25T20:05:52.933Z,98326.81
2023-04-25T20:08:20.333Z,98327.64
2023-04-25T20:10:47.144Z,98328.73
2023-04-25T20:13:13.733Z,98329.94
2023-04-25T20:15:40.726Z,98330.16
2023-04-25T20:18:07.414Z,98337.15
2023-04-25T20:20:36.217Z,98340.58
2023-04-25T20:23:03.049Z,98342.70
2023-04-25T20:25:29.846Z,98343.78
2023-04-25T20:27:56.654Z,98345.98
2023-04-25T20:30:23.380Z,98344.57
2023-04-25T20:32:50.067Z,98348.70
2023-04-25T20:35:17.182Z,98346.86
2023-04-25T20:37:43.941Z,98347.86
2023-04-25T20:40:11.267Z,98349.79
2023-04-25T20:42:38.301Z,98349.06
2023-04-25T20:45:16.085Z,98348.31
2023-04-25T20:47:43.897Z,98349.47
2023-04-25T20:50:10.760Z,98352.46
2023-04-25T20:52:38.174Z,98350.63
2023-04-25T20:55:06.325Z,98351.64
2023-04-25T20:57:33.594Z,98353.41
2023-04-25T21:00:04.786Z,98356.30
2023-04-25T21:02:33.748Z,98355.14
2023-04-25T21:05:01.154Z,98354.83
2023-04-25T21:07:28.113Z,98356.64
2023-04-25T21:09:54.769Z,98357.46
2023-04-25T21:12:21.516Z,98359.02
2023-04-25T21:14:48.182Z,98354.87
2023-04-25T21:17:14.932Z,98353.13
2023-04-25T21:19:41.629Z,98353.91
2023-04-25T21:22:08.338Z,98353.36
2023-04-25T21:24:36.949Z,98354.27
2023-04-25T21:27:04.344Z,98356.14
2023-04-25T21:29:32.070Z,98357.70
2023-04-25T21:31:58.734Z,98355.96
2023-04-25T21:34:25.956Z,98359.64
2023-04-25T21:36:52.623Z,98355.95
2023-04-25T21:39:19.324Z,98354.54
2023-04-25T21:41:45.970Z,98354.73
2023-04-25T21:44:13.979Z,98355.40
2023-04-25T21:46:40.654Z,98355.51
2023-04-25T21:49:07.374Z,98349.72
2023-04-25T21:51:34.140Z,98348.98
2023-04-25T21:54:04.593Z,98348.31
2023-04-25T21:56:32.162Z,98350.08
2023-04-25T21:58:58.827Z,98347.05
2023-04-25T22:01:26.951Z,98344.08
2023-04-25T22:03:53.793Z,98344.39
2023-04-25T22:06:21.082Z,98340.17
2023-04-25T22:08:47.935Z,98342.60
2023-04-25T22:11:14.749Z,98340.34
2023-04-25T22:13:41.957Z,98339.04
2023-04-25T22:16:11.536Z,98338.34
2023-04-25T22:18:39.836Z,98337.16
2023-04-25T22:21:06.647Z,98337.84
2023-04-25T22:23:33.379Z,98337.25
2023-04-25T22:26:00.487Z,98341.00
2023-04-25T22:28:27.548Z,98338.89
2023-04-25T22:30:54.386Z,98336.15
2023-04-25T22:33:21.377Z,98337.64
2023-04-25T22:35:48.063Z,98340.52
2023-04-25T22:38:14.641Z,98337.06
2023-04-25T22:40:41.623Z,98337.06
2023-04-25T22:43:08.272Z,98334.77
2023-04-25T22:45:35.259Z,98333.71
2023-04-25T22:48:02.902Z,98338.90
2023-04-25T22:50:30.553Z,98339.82
2023-04-25T22:52:57.662Z,98341.06
2023-04-25T22:55:25.964Z,98337.23
2023-04-25T22:57:52.886Z,98342.93
2023-04-25T23:00:21.185Z,98343.11
2023-04-25T23:02:48.978Z,98339.54
2023-04-25T23:05:15.976Z,98341.15
2023-04-25T23:07:45.853Z,98338.40
2023-04-25T23:10:15.218Z,98338.17
2023-04-25T23:12:42.343Z,98336.98
2023-04-25T23:15:09.495Z,98337.23
2023-04-25T23:17:36.592Z,98340.03
2023-04-25T23:20:10.083Z,98346.08
2023-04-25T23:22:38.324Z,98342.00
2023-04-25T23:25:06.931Z,98340.24
2023-04-25T23:27:33.591Z,98336.06
2023-04-25T23:30:00.285Z,98336.54
2023-04-25T23:32:27.288Z,98336.62
2023-04-25T23:34:53.978Z,98332.59
2023-04-25T23:37:21.071Z,98333.48
2023-04-25T23:39:51.261Z,98331.86
2023-04-25T23:42:18.216Z,98331.81
2023-04-25T23:44:44.997Z,98332.05
2023-04-25T23:47:13.175Z,98326.86
2023-04-25T23:49:40.496Z,98331.03
2023-04-25T23:52:07.264Z,98330.67
2023-04-25T23:54:35.372Z,98332.14
2023-04-25T23:57:03.862Z,98331.53
2023-04-25T23:59:31.123Z,98332.41
